createdAt,value
2023-01-13T15:56:36.251Z,89.80
2023-01-13T15:59:04.019Z,73.70
2023-01-13T16:01:30.907Z,72.90
2023-01-13T16:03:57.683Z,72.50
2023-01-13T16:06:27.956Z,72.60
2023-01-13T16:08:54.656Z,72.00
2023-01-13T16:11:21.435Z,72.00
2023-01-13T16:13:48.149Z,71.40
2023-01-13T16:16:28.063Z,70.90
2023-01-13T16:18:55.471Z,70.80
2023-01-13T16:21:22.942Z,70.60
2023-01-13T16:23:50.483Z,70.10
2023-01-13T16:26:25.197Z,70.10
2023-01-13T16:28:53.574Z,70.20
2023-01-13T16:31:30.631Z,70.00
2023-01-13T16:33:58.265Z,70.00
2023-01-13T16:36:25.010Z,70.40
2023-01-13T16:38:52.780Z,70.00
2023-01-13T16:41:20.630Z,70.10
2023-01-13T16:43:47.782Z,69.90
2023-01-13T16:46:14.516Z,70.10
2023-01-13T16:48:41.259Z,69.80
2023-01-13T16:51:07.976Z,69.80
2023-01-13T16:53:34.694Z,69.70
2023-01-13T16:56:01.446Z,69.60
2023-01-13T16:58:28.174Z,69.80
2023-01-13T17:00:55.073Z,69.60
2023-01-13T17:03:21.887Z,69.80
2023-01-13T17:05:48.667Z,69.40
2023-01-13T17:08:18.020Z,69.30
2023-01-13T17:10:45.649Z,69.40
2023-01-13T17:13:16.302Z,69.40
2023-01-13T17:15:44.411Z,69.50
2023-01-13T17:18:13.306Z,69.40
2023-01-13T17:20:40.538Z,69.40
2023-01-13T17:23:07.251Z,69.30
2023-01-13T17:25:33.996Z,69.40
2023-01-13T17:28:00.861Z,69.30
2023-01-13T17:30:27.600Z,69.60
2023-01-13T17:32:54.390Z,69.80
2023-01-13T17:35:24.861Z,69.60
2023-01-13T17:37:52.308Z,69.40
2023-01-13T17:40:19.123Z,69.60
2023-01-13T17:42:45.836Z,69.50
2023-01-13T17:45:12.563Z,69.60
2023-01-13T17:47:39.321Z,69.60
2023-01-13T17:50:06.430Z,69.60
2023-01-13T17:52:33.735Z,69.80
2023-01-13T17:55:00.424Z,69.40
2023-01-13T17:57:27.186Z,69.70
2023-01-13T17:59:53.871Z,69.60
2023-01-13T18:02:20.657Z,69.40
2023-01-13T18:04:47.511Z,69.40
2023-01-13T18:07:14.324Z,68.90
2023-01-13T18:09:41.041Z,68.40
2023-01-13T18:12:07.779Z,68.10
2023-01-13T18:14:34.789Z,68.20
2023-01-13T18:17:01.548Z,68.10
2023-01-13T18:19:46.734Z,68.00
2023-01-13T18:22:32.345Z,67.90
2023-01-13T18:25:18.020Z,68.10
2023-01-13T18:27:44.801Z,68.20
2023-01-13T18:30:12.526Z,68.50
2023-01-13T18:32:39.469Z,68.80
2023-01-13T18:35:10.045Z,68.90
2023-01-13T18:37:42.284Z,68.80
2023-01-13T18:40:11.783Z,68.80
2023-01-13T18:42:54.916Z,69.20
2023-01-13T18:45:25.492Z,68.90
2023-01-13T18:47:52.629Z,68.90
2023-01-13T18:50:19.467Z,68.90
2023-01-13T18:52:46.485Z,68.90
2023-01-13T18:55:13.203Z,68.70
2023-01-13T18:57:43.001Z,68.70
2023-01-13T19:00:11.070Z,68.60
2023-01-13T19:02:38.073Z,68.70
2023-01-13T19:05:05.277Z,68.70
2023-01-13T19:07:34.768Z,68.60
2023-01-13T19:10:02.284Z,68.60
2023-01-13T19:12:31.163Z,68.70
2023-01-13T19:14:58.413Z,68.90
2023-01-13T19:17:26.200Z,68.60
2023-01-13T19:19:54.523Z,68.70
2023-01-13T19:22:23.409Z,68.60
2023-01-13T19:24:50.785Z,68.60
2023-01-13T19:27:18.700Z,68.60
2023-01-13T19:29:48.961Z,68.70
2023-01-13T19:32:22.617Z,68.90
2023-01-13T19:34:51.076Z,68.80
2023-01-13T19:37:18.521Z,68.80
2023-01-13T19:39:45.415Z,68.70
2023-01-13T19:42:30.725Z,68.80
2023-01-13T19:45:15.903Z,69.00
2023-01-13T19:47:45.260Z,69.00
2023-01-13T19:50:12.123Z,68.90
2023-01-13T19:52:38.969Z,69.90
2023-01-13T19:55:05.950Z,69.00
2023-01-13T19:57:32.676Z,69.00
2023-01-13T19:59:59.464Z,69.50
2023-01-13T20:02:31.516Z,69.50
2023-01-13T20:04:59.645Z,69.30
2023-01-13T20:07:27.425Z,69.30
2023-01-13T20:09:56.268Z,69.20
2023-01-13T20:12:23.942Z,69.10
2023-01-13T20:14:51.189Z,69.10
2023-01-13T20:17:18.760Z,69.20
2023-01-13T20:19:45.725Z,69.30
2023-01-13T20:22:12.689Z,69.30
2023-01-13T20:24:39.591Z,69.40
2023-01-13T20:27:06.481Z,69.40
2023-01-13T20:29:33.518Z,69.10
2023-01-13T20:32:00.259Z,68.60
2023-01-13T20:34:26.961Z,68.50
2023-01-13T20:36:53.742Z,68.30
2023-01-13T20:39:21.985Z,68.50
2023-01-13T20:42:07.879Z,68.30
2023-01-13T20:44:34.676Z,68.20
2023-01-13T20:47:02.902Z,67.80
2023-01-13T20:49:30.359Z,68.10
2023-01-13T20:51:57.098Z,68.10
2023-01-13T20:54:24.303Z,67.80
2023-01-13T20:56:51.044Z,68.00
2023-01-13T20:59:17.792Z,68.00
2023-01-13T21:01:44.568Z,68.00
2023-01-13T21:04:11.311Z,68.30
2023-01-13T21:06:38.125Z,68.10
2023-01-13T21:09:04.907Z,68.50
2023-01-13T21:11:50.107Z,68.40
2023-01-13T21:14:39.806Z,68.30
2023-01-13T21:17:07.450Z,68.30
2023-01-13T21:19:34.521Z,68.50
2023-01-13T21:22:01.321Z,68.70
2023-01-13T21:24:28.058Z,68.70
2023-01-13T21:26:58.167Z,68.80
2023-01-13T21:29:24.991Z,68.80
2023-01-13T21:31:51.813Z,69.20
2023-01-13T21:34:18.577Z,69.00
2023-01-13T21:36:45.380Z,69.00
2023-01-13T21:39:14.213Z,69.00
2023-01-13T21:41:59.715Z,69.00
2023-01-13T21:44:45.362Z,69.90
2023-01-13T21:47:34.528Z,69.20
2023-01-13T21:50:01.354Z,69.20
2023-01-13T21:52:30.237Z,69.00
2023-01-13T21:55:15.614Z,69.10
2023-01-13T21:57:45.090Z,69.30
2023-01-13T22:00:12.051Z,69.10
2023-01-13T22:02:38.888Z,69.00
2023-01-13T22:05:06.886Z,69.10
2023-01-13T22:07:34.324Z,63.90
2023-01-13T22:12:30.667Z,91.90
2023-01-13T22:14:57.404Z,83.80
2023-01-13T22:17:25.379Z,85.10
2023-01-13T22:22:21.439Z,87.90
2023-01-13T22:24:49.397Z,84.70
2023-01-13T22:27:18.801Z,82.50
2023-01-13T22:29:46.082Z,81.50
2023-01-13T22:32:12.849Z,80.40
2023-01-13T22:34:39.773Z,79.20
2023-01-13T22:37:06.581Z,79.10
2023-01-13T22:39:33.518Z,78.10
2023-01-13T22:42:00.594Z,77.50
2023-01-13T22:44:27.287Z,77.20
2023-01-13T22:46:54.015Z,77.00
2023-01-13T22:49:21.186Z,77.30
2023-01-13T22:51:47.879Z,77.00
2023-01-13T22:54:14.754Z,76.40
2023-01-13T22:56:41.511Z,76.20
2023-01-13T22:59:10.751Z,76.30
2023-01-13T23:01:37.653Z,74.50
2023-01-13T23:04:04.761Z,73.90
2023-01-13T23:06:32.764Z,74.40
2023-01-13T23:08:59.619Z,74.40
2023-01-13T23:11:28.052Z,74.30
2023-01-13T23:14:05.359Z,74.50
2023-01-13T23:16:33.725Z,75.10
2023-01-13T23:19:00.484Z,75.80
2023-01-13T23:21:29.048Z,76.40
2023-01-13T23:23:58.370Z,76.20
2023-01-13T23:26:25.744Z,75.80
2023-01-13T23:28:52.470Z,76.30
2023-01-13T23:31:20.864Z,76.30
2023-01-13T23:33:48.492Z,76.30
2023-01-13T23:36:16.910Z,76.10
2023-01-13T23:38:44.488Z,76.20
2023-01-13T23:41:12.098Z,75.90
2023-01-13T23:43:38.998Z,76.00
2023-01-13T23:46:07.605Z,75.70
2023-01-13T23:48:34.487Z,76.00
2023-01-13T23:51:02.004Z,76.00
2023-01-13T23:53:33.528Z,76.10
2023-01-13T23:56:00.865Z,76.30
2023-01-13T23:58:28.066Z,76.10
